createdAt,value
2018-09-24T00:00:56.009Z,101263.45
2018-09-24T00:03:25.354Z,101263.48
2018-09-24T00:05:54.594Z,101270.19
2018-09-24T00:08:23.861Z,101281.52
2018-09-24T00:10:53.357Z,101294.14
2018-09-24T00:13:22.590Z,101293.49
2018-09-24T00:15:52.082Z,101304.74
2018-09-24T00:18:21.293Z,101306.16
2018-09-24T00:20:50.887Z,101319.34
2018-09-24T00:23:20.013Z,101325.29
2018-09-24T00:25:49.258Z,101327.35
2018-09-24T00:28:18.629Z,101333.91
2018-09-24T00:30:47.870Z,101340.48
2018-09-24T00:33:17.061Z,101346.71
2018-09-24T00:35:46.026Z,101348.70
2018-09-24T00:38:14.987Z,101352.43
2018-09-24T00:40:43.948Z,101358.41
2018-09-24T00:43:12.948Z,101366.42
2018-09-24T00:45:41.916Z,101377.76
2018-09-24T00:48:10.873Z,101378.22
2018-09-24T00:50:39.822Z,101380.16
2018-09-24T00:53:08.790Z,101390.69
2018-09-24T00:55:37.726Z,101394.89
2018-09-24T00:58:06.960Z,101392.19
2018-09-24T01:00:35.979Z,101390.19
2018-09-24T01:03:05.026Z,101391.73
2018-09-24T01:05:33.976Z,101383.66
2018-09-24T01:08:02.948Z,101380.86
2018-09-24T01:10:31.875Z,101390.63
2018-09-24T01:13:01.110Z,101384.81
2018-09-24T01:15:30.075Z,101387.49
2018-09-24T01:17:59.058Z,101402.69
2018-09-24T01:20:27.981Z,101391.25
2018-09-24T01:22:57.061Z,101394.51
2018-09-24T01:25:25.980Z,101395.09
2018-09-24T01:27:54.964Z,101396.69
2018-09-24T01:30:23.866Z,101405.23
2018-09-24T01:32:52.830Z,101398.25
2018-09-24T01:35:21.766Z,101408.41
2018-09-24T01:37:50.784Z,101417.75
2018-09-24T01:40:19.736Z,101420.64
2018-09-24T01:42:48.688Z,101418.69
2018-09-24T01:45:17.606Z,101439.44
2018-09-24T01:47:46.559Z,101434.36
2018-09-24T01:50:15.494Z,101445.20
2018-09-24T01:52:44.457Z,101449.05
2018-09-24T01:55:13.388Z,101449.69
2018-09-24T01:57:42.446Z,101455.86
2018-09-24T02:00:11.564Z,101459.82
2018-09-24T02:02:40.892Z,101455.88
2018-09-24T02:05:16.530Z,101463.84
2018-09-24T02:07:45.806Z,101465.09
2018-09-24T02:10:15.226Z,101471.86
2018-09-24T02:12:44.437Z,101472.38
2018-09-24T02:15:13.666Z,101474.78
2018-09-24T02:17:42.933Z,101473.95
2018-09-24T02:20:12.200Z,101487.39
2018-09-24T02:22:41.268Z,101493.05
2018-09-24T02:25:10.198Z,101503.11
2018-09-24T02:27:39.410Z,101499.33
2018-09-24T02:30:08.768Z,101495.49
2018-09-24T02:32:37.998Z,101509.98
2018-09-24T02:35:06.953Z,101517.06
2018-09-24T02:37:36.074Z,101529.80
2018-09-24T02:40:05.015Z,101535.59
2018-09-24T02:42:33.978Z,101542.20
2018-09-24T02:45:02.961Z,101546.81
2018-09-24T02:47:33.851Z,101544.16
2018-09-24T02:50:03.787Z,101548.94
2018-09-24T02:52:32.837Z,101546.47
2018-09-24T02:55:01.843Z,101544.49
2018-09-24T02:57:30.770Z,101545.44
2018-09-24T02:59:59.758Z,101553.05
2018-09-24T03:02:28.704Z,101554.23
2018-09-24T03:04:57.708Z,101551.57
2018-09-24T03:07:26.706Z,101556.73
2018-09-24T03:09:55.670Z,101557.59
2018-09-24T03:12:24.593Z,101558.66
2018-09-24T03:14:53.578Z,101562.11
2018-09-24T03:17:22.578Z,101566.95
2018-09-24T03:19:51.577Z,101561.58
2018-09-24T03:22:25.042Z,101560.13
2018-09-24T03:24:54.904Z,101574.55
2018-09-24T03:27:24.560Z,101585.60
2018-09-24T03:29:53.552Z,101591.67
2018-09-24T03:32:22.542Z,101593.05
2018-09-24T03:34:51.502Z,101606.56
2018-09-24T03:37:20.486Z,101609.82
2018-09-24T03:39:49.456Z,101613.87
2018-09-24T03:42:18.386Z,101616.30
2018-09-24T03:44:47.342Z,101617.36
2018-09-24T03:47:16.283Z,101621.14
2018-09-24T03:49:45.736Z,101627.47
2018-09-24T03:52:15.003Z,101627.47
2018-09-24T03:54:44.315Z,101629.42
2018-09-24T03:57:13.678Z,101634.72
2018-09-24T03:59:42.873Z,101634.58
2018-09-24T04:02:12.044Z,101644.05
2018-09-24T04:04:46.403Z,101649.22
2018-09-24T04:07:20.710Z,101654.39
2018-09-24T04:09:55.051Z,101651.13
2018-09-24T04:12:29.255Z,101656.59
2018-09-24T04:15:03.495Z,101662.37
2018-09-24T04:17:37.819Z,101664.61
2018-09-24T04:20:12.169Z,101668.59
2018-09-24T04:22:46.251Z,101671.66
2018-09-24T04:25:20.302Z,101677.90
2018-09-24T04:27:54.785Z,101676.19
2018-09-24T04:30:29.085Z,101676.27
2018-09-24T04:33:03.466Z,101678.52
2018-09-24T04:35:37.863Z,101681.41
2018-09-24T04:38:12.074Z,101683.64
2018-09-24T04:40:46.473Z,101690.30
2018-09-24T04:43:20.697Z,101700.73
2018-09-24T04:45:55.067Z,101700.63
2018-09-24T04:48:29.238Z,101698.57
2018-09-24T04:51:03.604Z,101699.98
2018-09-24T04:53:37.920Z,101709.27
2018-09-24T04:56:12.128Z,101710.63
2018-09-24T04:58:46.688Z,101716.24
2018-09-24T05:01:21.018Z,101715.86
2018-09-24T05:03:55.309Z,101728.13
2018-09-24T05:06:29.556Z,101742.95
2018-09-24T05:09:03.686Z,101746.66
2018-09-24T05:11:38.018Z,101742.48
2018-09-24T05:14:12.246Z,101746.38
2018-09-24T05:16:46.661Z,101749.41
2018-09-24T05:19:21.155Z,101766.70
2018-09-24T05:21:55.466Z,101770.60
2018-09-24T05:24:29.736Z,101775.45
2018-09-24T05:27:04.340Z,101786.19
2018-09-24T05:29:38.373Z,101785.71
2018-09-24T05:32:12.966Z,101791.25
2018-09-24T05:34:47.124Z,101796.39
2018-09-24T05:37:21.077Z,101796.69
2018-09-24T05:39:55.236Z,101803.80
2018-09-24T05:42:29.250Z,101802.59
2018-09-24T05:45:03.413Z,101812.20
2018-09-24T05:47:37.460Z,101814.67
2018-09-24T05:50:11.427Z,101820.44
2018-09-24T05:52:45.415Z,101817.26
2018-09-24T05:55:19.418Z,101825.44
2018-09-24T05:57:53.548Z,101833.50
2018-09-24T06:00:27.693Z,101829.22
2018-09-24T06:03:01.958Z,101832.50
2018-09-24T06:05:36.022Z,101833.63
2018-09-24T06:08:10.147Z,101839.51
2018-09-24T06:10:44.295Z,101838.70
2018-09-24T06:13:18.552Z,101853.37
2018-09-24T06:15:52.681Z,101852.90
2018-09-24T06:18:26.838Z,101859.96
2018-09-24T06:21:01.095Z,101858.61
2018-09-24T06:23:35.237Z,101868.44
2018-09-24T06:26:09.414Z,101866.20
2018-09-24T06:28:43.590Z,101875.05
2018-09-24T06:31:24.494Z,101883.78
2018-09-24T06:33:58.576Z,101883.30
2018-09-24T06:36:32.710Z,101883.61
2018-09-24T06:39:06.717Z,101884.63
2018-09-24T06:41:40.796Z,101894.52
2018-09-24T06:44:15.117Z,101899.44
2018-09-24T06:46:49.255Z,101904.41
2018-09-24T06:49:23.261Z,101911.54
2018-09-24T06:51:57.392Z,101915.86
2018-09-24T06:54:31.386Z,101917.56
2018-09-24T06:57:05.534Z,101927.83
2018-09-24T06:59:39.679Z,101930.27
2018-09-24T07:02:13.757Z,101943.62
2018-09-24T07:04:47.923Z,101951.04
2018-09-24T07:07:22.075Z,101948.49
2018-09-24T07:09:56.177Z,101959.00
2018-09-24T07:12:30.234Z,101944.16
2018-09-24T07:15:04.553Z,101958.05
2018-09-24T07:17:38.896Z,101959.89
2018-09-24T07:20:13.277Z,101958.98
2018-09-24T07:22:47.682Z,101966.30
2018-09-24T07:25:21.863Z,101970.06
2018-09-24T07:27:56.021Z,101971.26
2018-09-24T07:30:30.309Z,101977.22
2018-09-24T07:33:04.604Z,101978.75
2018-09-24T07:35:38.787Z,101982.83
2018-09-24T07:38:13.229Z,101995.55
2018-09-24T07:40:47.682Z,101995.00
2018-09-24T07:43:22.401Z,101996.53
2018-09-24T07:45:59.424Z,101999.34
2018-09-24T07:48:33.898Z,102001.89
2018-09-24T07:51:08.080Z,102011.91
2018-09-24T07:53:42.400Z,102004.73
2018-09-24T07:56:16.398Z,102014.13
2018-09-24T07:58:50.729Z,102017.41
2018-09-24T08:01:24.890Z,102013.75
2018-09-24T08:03:59.261Z,102009.69
2018-09-24T08:06:33.678Z,102025.64
2018-09-24T08:09:08.025Z,102016.77
2018-09-24T08:11:42.267Z,102031.17
2018-09-24T08:14:16.494Z,102035.45
2018-09-24T08:16:50.544Z,102034.00
2018-09-24T08:19:24.547Z,102037.15
2018-09-24T08:21:58.590Z,102044.74
2018-09-24T08:24:32.849Z,102041.03
2018-09-24T08:27:06.925Z,102045.97
2018-09-24T08:29:41.110Z,102043.00
2018-09-24T08:32:15.299Z,102044.12
2018-09-24T08:34:49.873Z,102047.64
2018-09-24T08:37:24.383Z,102051.74
2018-09-24T08:39:58.799Z,102061.60
2018-09-24T08:42:32.947Z,102065.77
2018-09-24T08:45:07.530Z,102061.70
2018-09-24T08:47:41.677Z,102062.94
2018-09-24T08:50:15.803Z,102054.09
2018-09-24T08:52:49.729Z,102060.14
2018-09-24T08:55:24.122Z,102050.81
2018-09-24T08:57:58.371Z,102049.93
2018-09-24T09:00:32.521Z,102059.98
2018-09-24T09:03:06.643Z,102053.31
2018-09-24T09:05:40.700Z,102062.55
2018-09-24T09:08:14.704Z,102072.59
2018-09-24T09:10:48.791Z,102082.40
2018-09-24T09:13:22.974Z,102067.79
2018-09-24T09:15:56.977Z,102073.30
2018-09-24T09:18:31.009Z,102076.01
2018-09-24T09:21:05.091Z,102069.53
2018-09-24T09:23:39.158Z,102074.88
2018-09-24T09:26:13.276Z,102071.47
2018-09-24T09:28:47.413Z,102072.41
2018-09-24T09:31:21.582Z,102071.13
2018-09-24T09:33:55.710Z,102073.86
2018-09-24T09:36:29.884Z,102076.83
2018-09-24T09:39:03.899Z,102076.42
2018-09-24T09:41:37.968Z,102078.89
2018-09-24T09:44:12.288Z,102080.32
2018-09-24T09:46:46.542Z,102073.12
2018-09-24T09:49:20.625Z,102075.39
2018-09-24T09:51:54.878Z,102070.72
2018-09-24T09:54:28.949Z,102083.59
2018-09-24T09:57:03.029Z,102080.06
2018-09-24T09:59:37.167Z,102079.62
2018-09-24T10:02:11.229Z,102075.29
2018-09-24T10:04:45.365Z,102089.59
2018-09-24T10:07:19.523Z,102091.14
2018-09-24T10:09:53.478Z,102081.45
2018-09-24T10:12:27.621Z,102096.28
2018-09-24T10:15:01.710Z,102091.73
2018-09-24T10:17:35.923Z,102084.64
2018-09-24T10:20:10.325Z,102094.42
2018-09-24T10:22:44.821Z,102098.37
2018-09-24T10:25:19.098Z,102094.86
2018-09-24T10:27:53.476Z,102098.42
2018-09-24T10:30:27.590Z,102092.28
2018-09-24T10:33:01.858Z,102098.97
2018-09-24T10:35:36.252Z,102099.81
2018-09-24T10:38:10.621Z,102092.74
2018-09-24T10:40:44.992Z,102076.22
2018-09-24T10:43:19.437Z,102074.37
2018-09-24T10:45:53.484Z,102059.42
2018-09-24T10:48:27.570Z,102088.41
2018-09-24T10:51:01.567Z,102080.45
2018-09-24T10:53:35.574Z,102077.23
2018-09-24T10:56:09.858Z,102076.31
2018-09-24T10:58:43.943Z,102078.97
2018-09-24T11:01:18.265Z,102081.12
2018-09-24T11:03:52.619Z,102082.88
2018-09-24T11:06:26.992Z,102078.58
2018-09-24T11:09:01.239Z,102067.40
2018-09-24T11:11:35.513Z,102068.36
2018-09-24T11:14:09.711Z,102077.84
2018-09-24T11:16:43.914Z,102082.73
2018-09-24T11:19:18.140Z,102078.52
2018-09-24T11:21:52.285Z,102072.19
2018-09-24T11:24:26.306Z,102066.84
2018-09-24T11:27:00.389Z,102061.44
2018-09-24T11:29:34.434Z,102076.23
2018-09-24T11:32:08.357Z,102071.92
2018-09-24T11:34:42.451Z,102076.52
2018-09-24T11:37:16.822Z,102067.44
2018-09-24T11:39:51.036Z,102064.88
2018-09-24T11:42:25.333Z,102062.42
2018-09-24T11:44:59.389Z,102054.58
2018-09-24T11:47:33.374Z,102063.31
2018-09-24T11:50:07.454Z,102057.05
2018-09-24T11:52:41.547Z,102066.70
2018-09-24T11:55:15.733Z,102069.32
2018-09-24T11:57:49.918Z,102065.09
2018-09-24T12:00:24.214Z,102064.15
2018-09-24T12:02:58.647Z,102064.00
2018-09-24T12:05:32.811Z,102061.63
2018-09-24T12:08:07.005Z,102063.98
2018-09-24T12:10:41.163Z,102069.14
2018-09-24T12:13:15.314Z,102058.43
2018-09-24T12:15:49.286Z,102069.39
2018-09-24T12:18:23.455Z,102056.81
2018-09-24T12:20:57.378Z,102052.78
2018-09-24T12:23:31.373Z,102055.89
2018-09-24T12:26:05.508Z,102056.94
2018-09-24T12:28:39.686Z,102046.55
2018-09-24T12:31:13.736Z,102049.67
2018-09-24T12:33:47.908Z,102053.34
2018-09-24T12:36:22.048Z,102055.83
2018-09-24T12:38:56.081Z,102052.45
2018-09-24T12:41:30.229Z,102065.01
2018-09-24T12:44:04.620Z,102075.05
2018-09-24T12:46:38.818Z,102088.50
2018-09-24T12:49:12.971Z,102101.06
2018-09-24T12:51:47.105Z,102107.30
2018-09-24T12:54:21.453Z,102105.55
2018-09-24T12:56:55.675Z,102097.94
2018-09-24T12:59:29.894Z,102098.55
2018-09-24T13:02:04.201Z,102098.83
2018-09-24T13:04:38.396Z,102094.16
2018-09-24T13:07:12.407Z,102092.70
2018-09-24T13:09:46.490Z,102086.34
2018-09-24T13:12:20.637Z,102078.57
2018-09-24T13:14:54.747Z,102084.69
2018-09-24T13:17:28.749Z,102085.80
2018-09-24T13:20:02.827Z,102080.36
2018-09-24T13:22:36.826Z,102074.14
2018-09-24T13:25:11.531Z,102071.95
2018-09-24T13:27:45.686Z,102067.02
2018-09-24T13:30:19.926Z,102061.95
2018-09-24T13:32:54.589Z,102062.56
2018-09-24T13:35:28.773Z,102062.72
2018-09-24T13:38:02.740Z,102065.62
2018-09-24T13:40:36.836Z,102051.39
2018-09-24T13:43:10.969Z,102062.27
2018-09-24T13:45:45.147Z,102055.81
2018-09-24T13:48:19.301Z,102049.31
2018-09-24T13:50:53.457Z,102048.74
2018-09-24T13:53:27.567Z,102052.02
2018-09-24T13:56:01.766Z,102044.41
2018-09-24T13:58:35.954Z,102045.59
2018-09-24T14:01:10.205Z,102037.30
2018-09-24T14:03:44.318Z,102039.34
2018-09-24T14:06:18.427Z,102032.78
2018-09-24T14:08:52.566Z,102026.98
2018-09-24T14:11:26.748Z,102021.80
2018-09-24T14:14:00.953Z,102022.25
2018-09-24T14:16:34.950Z,102015.31
2018-09-24T14:19:09.061Z,102020.62
2018-09-24T14:21:43.221Z,102018.42
2018-09-24T14:24:17.418Z,102023.37
2018-09-24T14:26:51.478Z,102025.02
2018-09-24T14:29:25.660Z,102016.63
2018-09-24T14:31:59.813Z,102037.50
2018-09-24T14:34:34.083Z,102028.89
2018-09-24T14:37:08.450Z,102020.14
2018-09-24T14:39:42.593Z,102017.44
2018-09-24T14:42:17.190Z,102020.20
2018-09-24T14:44:51.507Z,102025.95
2018-09-24T14:47:25.883Z,102026.13
2018-09-24T14:50:00.026Z,102022.61
2018-09-24T14:52:34.158Z,102024.34
2018-09-24T14:55:08.227Z,102024.05
2018-09-24T14:57:42.618Z,102023.59
2018-09-24T15:00:17.172Z,102023.77
2018-09-24T15:02:51.278Z,102028.45
2018-09-24T15:05:25.435Z,102027.72
2018-09-24T15:07:59.462Z,102029.80
2018-09-24T15:10:33.513Z,102027.95
2018-09-24T15:13:07.984Z,102033.33
2018-09-24T15:15:42.286Z,102033.73
2018-09-24T15:18:16.486Z,102038.25
2018-09-24T15:20:50.837Z,102034.09
2018-09-24T15:23:25.001Z,102039.84
2018-09-24T15:25:59.117Z,102040.37
2018-09-24T15:28:33.092Z,102044.75
2018-09-24T15:31:07.495Z,102044.31
2018-09-24T15:33:41.720Z,102032.67
2018-09-24T15:36:15.895Z,102036.78
2018-09-24T15:38:50.066Z,102037.66
2018-09-24T15:41:24.075Z,102030.39
2018-09-24T15:43:58.094Z,102034.20
2018-09-24T15:46:32.387Z,102032.86
2018-09-24T15:49:06.874Z,102025.95
2018-09-24T15:51:41.207Z,102025.67
2018-09-24T15:54:15.233Z,102030.12
2018-09-24T15:56:49.354Z,102029.27
2018-09-24T15:59:23.565Z,102029.34
2018-09-24T16:01:57.626Z,102032.61
2018-09-24T16:04:31.793Z,102032.90
2018-09-24T16:07:06.306Z,102038.55
2018-09-24T16:09:40.355Z,102042.49
2018-09-24T16:12:14.634Z,102039.12
2018-09-24T16:14:48.767Z,102044.42
2018-09-24T16:17:22.893Z,102044.56
2018-09-24T16:19:57.136Z,102049.09
2018-09-24T16:22:31.284Z,102054.25
2018-09-24T16:25:05.495Z,102051.09
2018-09-24T16:27:40.298Z,102055.72
2018-09-24T16:30:14.394Z,102063.87
2018-09-24T16:32:48.355Z,102069.52
2018-09-24T16:35:22.688Z,102062.33
2018-09-24T16:37:56.800Z,102078.06
2018-09-24T16:40:30.834Z,102086.44
2018-09-24T16:43:04.933Z,102097.31
2018-09-24T16:45:39.092Z,102100.47
2018-09-24T16:48:13.166Z,102095.64
2018-09-24T16:50:47.202Z,102088.83
2018-09-24T16:53:21.343Z,102078.13
2018-09-24T16:55:55.634Z,102098.94
2018-09-24T16:58:29.604Z,102090.62
2018-09-24T17:01:03.968Z,102088.94
2018-09-24T17:03:38.237Z,102085.92
2018-09-24T17:06:12.468Z,102085.41
2018-09-24T17:08:46.696Z,102091.30
2018-09-24T17:11:20.862Z,102097.52
2018-09-24T17:13:55.036Z,102090.25
2018-09-24T17:16:29.200Z,102093.17
2018-09-24T17:19:03.333Z,102097.34
2018-09-24T17:21:37.374Z,102097.45
2018-09-24T17:24:11.508Z,102106.48
2018-09-24T17:26:45.651Z,102108.92
2018-09-24T17:29:19.760Z,102112.78
2018-09-24T17:31:53.835Z,102114.17
2018-09-24T17:34:27.885Z,102110.83
2018-09-24T17:37:01.941Z,102111.33
2018-09-24T17:39:35.921Z,102109.72
2018-09-24T17:42:10.149Z,102118.77
2018-09-24T17:44:44.443Z,102127.76
2018-09-24T17:47:18.515Z,102135.53
2018-09-24T17:49:52.535Z,102143.30
2018-09-24T17:52:26.808Z,102137.27
2018-09-24T17:55:00.826Z,102145.30
2018-09-24T17:57:34.906Z,102143.38
2018-09-24T18:00:08.806Z,102149.77
2018-09-24T18:02:42.954Z,102149.98
2018-09-24T18:05:17.186Z,102145.25
2018-09-24T18:07:51.592Z,102146.43
2018-09-24T18:10:26.772Z,102156.19
2018-09-24T18:13:01.110Z,102158.41
2018-09-24T18:15:35.562Z,102158.08
2018-09-24T18:18:10.213Z,102168.00
2018-09-24T18:20:44.494Z,102173.98
2018-09-24T18:23:18.826Z,102182.11
2018-09-24T18:25:53.247Z,102177.36
2018-09-24T18:28:27.265Z,102171.78
2018-09-24T18:31:01.453Z,102176.50
2018-09-24T18:33:35.764Z,102186.89
2018-09-24T18:36:10.125Z,102183.36
2018-09-24T18:38:44.487Z,102192.06
2018-09-24T18:41:18.726Z,102189.48
2018-09-24T18:43:53.018Z,102195.27
2018-09-24T18:46:27.302Z,102201.20
2018-09-24T18:49:08.427Z,102199.69
2018-09-24T18:51:43.097Z,102213.20
2018-09-24T18:54:17.381Z,102210.07
2018-09-24T18:56:51.934Z,102214.56
2018-09-24T18:59:26.114Z,102214.77
2018-09-24T19:02:00.377Z,102221.81
2018-09-24T19:04:34.951Z,102229.23
2018-09-24T19:07:09.315Z,102229.62
2018-09-24T19:09:43.758Z,102225.80
2018-09-24T19:12:18.176Z,102229.45
2018-09-24T19:14:52.435Z,102222.77
2018-09-24T19:17:26.666Z,102227.51
2018-09-24T19:20:01.055Z,102230.41
2018-09-24T19:22:35.531Z,102236.39
2018-09-24T19:25:09.867Z,102236.11
2018-09-24T19:27:44.087Z,102239.36
2018-09-24T19:30:18.377Z,102238.01
2018-09-24T19:32:52.799Z,102242.08
2018-09-24T19:35:26.981Z,102244.44
2018-09-24T19:38:01.243Z,102251.34
2018-09-24T19:40:35.565Z,102249.84
2018-09-24T19:43:09.885Z,102248.76
2018-09-24T19:45:44.390Z,102250.69
2018-09-24T19:48:18.809Z,102246.78
2018-09-24T19:50:53.094Z,102254.60
2018-09-24T19:53:27.373Z,102248.59
2018-09-24T19:56:01.626Z,102254.38
2018-09-24T19:58:35.979Z,102253.40
2018-09-24T20:01:10.165Z,102256.00
2018-09-24T20:03:44.558Z,102258.69
2018-09-24T20:06:19.040Z,102257.88
2018-09-24T20:08:53.563Z,102261.02
2018-09-24T20:11:28.399Z,102262.21
2018-09-24T20:14:03.120Z,102261.22
2018-09-24T20:16:37.515Z,102262.93
2018-09-24T20:19:11.834Z,102263.12
2018-09-24T20:21:46.265Z,102257.40
2018-09-24T20:24:20.602Z,102265.97
2018-09-24T20:26:55.226Z,102261.21
2018-09-24T20:29:29.677Z,102268.16
2018-09-24T20:32:04.476Z,102273.31
2018-09-24T20:34:38.739Z,102269.88
2018-09-24T20:37:13.073Z,102263.73
2018-09-24T20:39:47.242Z,102268.93
2018-09-24T20:42:21.568Z,102272.80
2018-09-24T20:44:55.904Z,102273.89
2018-09-24T20:47:30.245Z,102279.35
2018-09-24T20:50:04.601Z,102286.07
2018-09-24T20:52:38.989Z,102285.84
2018-09-24T20:55:13.349Z,102289.23
2018-09-24T20:57:47.539Z,102288.02
2018-09-24T21:00:21.651Z,102286.98
2018-09-24T21:02:55.906Z,102294.95
2018-09-24T21:05:30.022Z,102292.98
2018-09-24T21:08:04.105Z,102288.44
2018-09-24T21:10:38.335Z,102300.45
2018-09-24T21:13:12.600Z,102304.37
2018-09-24T21:15:47.029Z,102306.47
2018-09-24T21:18:21.299Z,102306.26
2018-09-24T21:20:55.500Z,102308.47
2018-09-24T21:23:30.123Z,102310.41
2018-09-24T21:26:04.567Z,102314.84
2018-09-24T21:28:38.733Z,102320.43
2018-09-24T21:31:12.877Z,102315.55
2018-09-24T21:33:47.081Z,102319.67
2018-09-24T21:36:21.300Z,102313.97
2018-09-24T21:38:55.666Z,102317.41
2018-09-24T21:41:30.035Z,102319.61
2018-09-24T21:44:04.248Z,102316.81
2018-09-24T21:46:38.543Z,102327.59
2018-09-24T21:49:12.734Z,102333.11
2018-09-24T21:51:46.838Z,102339.77
2018-09-24T21:54:21.083Z,102335.30
2018-09-24T21:56:55.381Z,102346.13
2018-09-24T21:59:29.498Z,102345.77
2018-09-24T22:02:03.605Z,102348.75
2018-09-24T22:04:37.590Z,102347.58
2018-09-24T22:07:11.637Z,102351.23
2018-09-24T22:09:45.782Z,102355.48
2018-09-24T22:12:19.860Z,102349.66
2018-09-24T22:14:53.832Z,102348.44
2018-09-24T22:17:27.921Z,102351.35
2018-09-24T22:20:01.959Z,102355.61
2018-09-24T22:22:36.590Z,102360.53
2018-09-24T22:25:11.039Z,102355.45
2018-09-24T22:27:45.194Z,102366.30
2018-09-24T22:30:19.284Z,102358.49
2018-09-24T22:32:53.378Z,102358.73
2018-09-24T22:35:27.611Z,102362.41
2018-09-24T22:38:01.835Z,102373.81
2018-09-24T22:40:36.042Z,102375.91
2018-09-24T22:43:10.140Z,102379.52
2018-09-24T22:45:44.380Z,102373.98
2018-09-24T22:48:18.469Z,102384.84
2018-09-24T22:50:52.713Z,102381.44
2018-09-24T22:53:26.814Z,102385.73
2018-09-24T22:56:00.929Z,102380.47
2018-09-24T22:58:35.041Z,102383.22
2018-09-24T23:01:09.147Z,102388.94
2018-09-24T23:03:43.379Z,102387.20
2018-09-24T23:06:17.594Z,102384.88
2018-09-24T23:08:51.898Z,102380.94
2018-09-24T23:11:26.096Z,102390.59
2018-09-24T23:14:00.305Z,102387.60
2018-09-24T23:16:34.547Z,102395.28
2018-09-24T23:19:08.696Z,102390.34
2018-09-24T23:21:42.886Z,102395.59
2018-09-24T23:24:17.082Z,102390.95
2018-09-24T23:26:51.314Z,102390.06
2018-09-24T23:29:25.461Z,102389.54
2018-09-24T23:31:59.747Z,102393.84
2018-09-24T23:34:33.890Z,102398.61
2018-09-24T23:37:07.990Z,102399.55
2018-09-24T23:39:42.096Z,102399.31
2018-09-24T23:42:16.230Z,102405.43
2018-09-24T23:44:50.405Z,102402.34
2018-09-24T23:47:24.619Z,102410.43
2018-09-24T23:49:58.768Z,102412.00
2018-09-24T23:52:33.056Z,102410.50
2018-09-24T23:55:07.405Z,102411.81
2018-09-24T23:57:41.557Z,102413.56
